sensor_id;sensor_type;location;lat;lon;timestamp;P1;durP1;ratioP1;P2;durP2;ratioP2
13366;SDS011;6752;52.612;13.630;2023-03-16T00:03:50;12.30;;;8.50;;
13366;SDS011;6752;52.612;13.630;2023-03-16T00:08:53;16.15;;;8.75;;
13366;SDS011;6752;52.612;13.630;2023-03-16T00:13:55;14.40;;;9.43;;
13366;SDS011;6752;52.612;13.630;2023-03-16T00:19:00;15.30;;;8.95;;
13366;SDS011;6752;52.612;13.630;2023-03-16T00:24:02;11.02;;;8.20;;
13366;SDS011;6752;52.612;13.630;2023-03-16T00:29:05;15.73;;;9.73;;
13366;SDS011;6752;52.612;13.630;2023-03-16T00:34:07;19.55;;;9.90;;
13366;SDS011;6752;52.612;13.630;2023-03-16T00:39:10;15.18;;;9.93;;
13366;SDS011;6752;52.612;13.630;2023-03-16T00:44:12;20.50;;;9.05;;
13366;SDS011;6752;52.612;13.630;2023-03-16T00:49:18;16.35;;;9.93;;
13366;SDS011;6752;52.612;13.630;2023-03-16T00:54:21;12.88;;;9.18;;
13366;SDS011;6752;52.612;13.630;2023-03-16T00:59:24;13.25;;;8.60;;
13366;SDS011;6752;52.612;13.630;2023-03-16T01:04:29;16.62;;;9.85;;
13366;SDS011;6752;52.612;13.630;2023-03-16T01:09:32;18.58;;;10.13;;
13366;SDS011;6752;52.612;13.630;2023-03-16T01:14:37;18.62;;;10.45;;
13366;SDS011;6752;52.612;13.630;2023-03-16T01:19:39;14.73;;;9.10;;
13366;SDS011;6752;52.612;13.630;2023-03-16T01:24:42;15.35;;;10.15;;
13366;SDS011;6752;52.612;13.630;2023-03-16T01:29:44;19.83;;;10.07;;
13366;SDS011;6752;52.612;13.630;2023-03-16T01:34:47;14.27;;;9.95;;
13366;SDS011;6752;52.612;13.630;2023-03-16T01:39:49;18.02;;;9.75;;
13366;SDS011;6752;52.612;13.630;2023-03-16T01:44:55;15.35;;;9.88;;
13366;SDS011;6752;52.612;13.630;2023-03-16T01:49:57;15.57;;;9.38;;
13366;SDS011;6752;52.612;13.630;2023-03-16T01:55:01;16.87;;;9.60;;
13366;SDS011;6752;52.612;13.630;2023-03-16T02:05:09;18.60;;;9.57;;
13366;SDS011;6752;52.612;13.630;2023-03-16T02:10:17;13.43;;;9.10;;
13366;SDS011;6752;52.612;13.630;2023-03-16T02:15:22;14.38;;;9.02;;
13366;SDS011;6752;52.612;13.630;2023-03-16T02:25:39;15.23;;;9.82;;
13366;SDS011;6752;52.612;13.630;2023-03-16T02:30:41;13.68;;;10.35;;
13366;SDS011;6752;52.612;13.630;2023-03-16T02:35:43;19.12;;;10.73;;
13366;SDS011;6752;52.612;13.630;2023-03-16T02:40:51;16.58;;;10.35;;
13366;SDS011;6752;52.612;13.630;2023-03-16T02:45:49;15.88;;;10.63;;
13366;SDS011;6752;52.612;13.630;2023-03-16T02:50:51;17.30;;;10.37;;
13366;SDS011;6752;52.612;13.630;2023-03-16T02:55:53;15.93;;;9.52;;
13366;SDS011;6752;52.612;13.630;2023-03-16T03:00:55;18.60;;;10.82;;
13366;SDS011;6752;52.612;13.630;2023-03-16T03:05:57;15.35;;;10.68;;
13366;SDS011;6752;52.612;13.630;2023-03-16T03:11:00;16.00;;;11.00;;
13366;SDS011;6752;52.612;13.630;2023-03-16T03:16:02;16.42;;;10.35;;
13366;SDS011;6752;52.612;13.630;2023-03-16T03:21:05;13.85;;;10.32;;
13366;SDS011;6752;52.612;13.630;2023-03-16T03:26:07;17.92;;;11.10;;
13366;SDS011;6752;52.612;13.630;2023-03-16T03:31:13;15.57;;;12.00;;
13366;SDS011;6752;52.612;13.630;2023-03-16T03:36:19;11.27;;;9.60;;
13366;SDS011;6752;52.612;13.630;2023-03-16T03:41:21;14.20;;;10.75;;
13366;SDS011;6752;52.612;13.630;2023-03-16T03:46:24;14.27;;;11.23;;
13366;SDS011;6752;52.612;13.630;2023-03-16T03:51:26;17.45;;;10.63;;
13366;SDS011;6752;52.612;13.630;2023-03-16T03:56:30;18.83;;;10.45;;
13366;SDS011;6752;52.612;13.630;2023-03-16T04:01:32;18.00;;;13.43;;
13366;SDS011;6752;52.612;13.630;2023-03-16T04:06:35;19.08;;;12.68;;
13366;SDS011;6752;52.612;13.630;2023-03-16T04:11:37;22.20;;;12.30;;
13366;SDS011;6752;52.612;13.630;2023-03-16T04:16:40;18.08;;;12.37;;
13366;SDS011;6752;52.612;13.630;2023-03-16T04:21:42;14.55;;;12.15;;
13366;SDS011;6752;52.612;13.630;2023-03-16T04:26:44;29.83;;;22.00;;
13366;SDS011;6752;52.612;13.630;2023-03-16T04:31:47;26.83;;;18.33;;
13366;SDS011;6752;52.612;13.630;2023-03-16T04:36:50;28.70;;;20.17;;
13366;SDS011;6752;52.612;13.630;2023-03-16T04:41:52;27.20;;;17.87;;
13366;SDS011;6752;52.612;13.630;2023-03-16T04:46:54;24.23;;;14.38;;
13366;SDS011;6752;52.612;13.630;2023-03-16T04:51:56;17.17;;;13.07;;
13366;SDS011;6752;52.612;13.630;2023-03-16T04:56:59;16.62;;;12.88;;
13366;SDS011;6752;52.612;13.630;2023-03-16T05:02:01;17.98;;;13.13;;
13366;SDS011;6752;52.612;13.630;2023-03-16T05:07:04;23.30;;;12.65;;
13366;SDS011;6752;52.612;13.630;2023-03-16T05:12:06;18.12;;;12.52;;
13366;SDS011;6752;52.612;13.630;2023-03-16T05:17:09;19.12;;;13.57;;
13366;SDS011;6752;52.612;13.630;2023-03-16T05:22:11;17.00;;;12.63;;
13366;SDS011;6752;52.612;13.630;2023-03-16T05:27:14;15.82;;;12.02;;
13366;SDS011;6752;52.612;13.630;2023-03-16T05:32:16;15.60;;;13.00;;
13366;SDS011;6752;52.612;13.630;2023-03-16T05:37:20;15.27;;;10.90;;
13366;SDS011;6752;52.612;13.630;2023-03-16T05:47:28;25.88;;;13.45;;
13366;SDS011;6752;52.612;13.630;2023-03-16T05:52:30;21.52;;;13.23;;
13366;SDS011;6752;52.612;13.630;2023-03-16T05:57:33;24.60;;;15.57;;
13366;SDS011;6752;52.612;13.630;2023-03-16T06:02:36;20.67;;;15.43;;
13366;SDS011;6752;52.612;13.630;2023-03-16T06:07:38;20.62;;;13.38;;
13366;SDS011;6752;52.612;13.630;2023-03-16T06:12:44;20.45;;;15.25;;
13366;SDS011;6752;52.612;13.630;2023-03-16T06:17:52;25.23;;;15.38;;
13366;SDS011;6752;52.612;13.630;2023-03-16T06:22:54;34.58;;;17.58;;
13366;SDS011;6752;52.612;13.630;2023-03-16T06:32:59;28.58;;;16.00;;
13366;SDS011;6752;52.612;13.630;2023-03-16T06:38:01;20.40;;;13.00;;
13366;SDS011;6752;52.612;13.630;2023-03-16T06:43:04;19.20;;;10.73;;
13366;SDS011;6752;52.612;13.630;2023-03-16T06:48:06;17.55;;;11.57;;
13366;SDS011;6752;52.612;13.630;2023-03-16T06:53:08;24.42;;;11.23;;
13366;SDS011;6752;52.612;13.630;2023-03-16T06:58:11;16.90;;;10.88;;
13366;SDS011;6752;52.612;13.630;2023-03-16T07:03:13;17.48;;;10.98;;
13366;SDS011;6752;52.612;13.630;2023-03-16T07:08:16;21.80;;;11.32;;
13366;SDS011;6752;52.612;13.630;2023-03-16T07:23:29;22.02;;;11.10;;
13366;SDS011;6752;52.612;13.630;2023-03-16T07:28:31;20.58;;;9.75;;
13366;SDS011;6752;52.612;13.630;2023-03-16T07:33:34;15.75;;;9.80;;
13366;SDS011;6752;52.612;13.630;2023-03-16T07:38:36;16.70;;;9.45;;
13366;SDS011;6752;52.612;13.630;2023-03-16T07:43:38;17.90;;;8.45;;
13366;SDS011;6752;52.612;13.630;2023-03-16T07:53:43;16.42;;;9.52;;
13366;SDS011;6752;52.612;13.630;2023-03-16T07:58:45;12.88;;;8.32;;
13366;SDS011;6752;52.612;13.630;2023-03-16T08:03:47;17.83;;;8.80;;
13366;SDS011;6752;52.612;13.630;2023-03-16T08:08:56;13.65;;;7.45;;
13366;SDS011;6752;52.612;13.630;2023-03-16T08:13:53;17.58;;;7.85;;
13366;SDS011;6752;52.612;13.630;2023-03-16T08:18:56;16.98;;;8.57;;
13366;SDS011;6752;52.612;13.630;2023-03-16T08:23:58;15.48;;;7.47;;
13366;SDS011;6752;52.612;13.630;2023-03-16T08:29:01;16.00;;;7.65;;
13366;SDS011;6752;52.612;13.630;2023-03-16T08:34:06;14.15;;;6.45;;
13366;SDS011;6752;52.612;13.630;2023-03-16T08:39:08;20.40;;;7.35;;
13366;SDS011;6752;52.612;13.630;2023-03-16T08:44:11;17.75;;;7.00;;
13366;SDS011;6752;52.612;13.630;2023-03-16T08:49:13;19.20;;;6.68;;
13366;SDS011;6752;52.612;13.630;2023-03-16T08:54:19;24.85;;;7.03;;
13366;SDS011;6752;52.612;13.630;2023-03-16T08:59:18;17.75;;;6.43;;
13366;SDS011;6752;52.612;13.630;2023-03-16T09:04:20;11.30;;;6.37;;
13366;SDS011;6752;52.612;13.630;2023-03-16T09:09:23;24.83;;;7.25;;
13366;SDS011;6752;52.612;13.630;2023-03-16T09:14:25;18.48;;;7.15;;
13366;SDS011;6752;52.612;13.630;2023-03-16T09:19:27;17.17;;;6.35;;
13366;SDS011;6752;52.612;13.630;2023-03-16T09:24:30;16.40;;;6.35;;
13366;SDS011;6752;52.612;13.630;2023-03-16T09:29:32;13.27;;;6.12;;
13366;SDS011;6752;52.612;13.630;2023-03-16T09:34:34;13.85;;;5.55;;
13366;SDS011;6752;52.612;13.630;2023-03-16T09:39:37;11.15;;;4.25;;
13366;SDS011;6752;52.612;13.630;2023-03-16T09:49:49;14.73;;;4.85;;
13366;SDS011;6752;52.612;13.630;2023-03-16T09:54:55;10.20;;;3.58;;
13366;SDS011;6752;52.612;13.630;2023-03-16T09:59:59;17.27;;;5.32;;
13366;SDS011;6752;52.612;13.630;2023-03-16T10:05:10;10.68;;;3.30;;
13366;SDS011;6752;52.612;13.630;2023-03-16T10:15:24;11.65;;;3.08;;
13366;SDS011;6752;52.612;13.630;2023-03-16T10:20:26;8.85;;;3.45;;
13366;SDS011;6752;52.612;13.630;2023-03-16T10:25:33;9.90;;;3.45;;
13366;SDS011;6752;52.612;13.630;2023-03-16T10:30:46;10.93;;;2.95;;
13366;SDS011;6752;52.612;13.630;2023-03-16T10:40:59;9.00;;;2.47;;
13366;SDS011;6752;52.612;13.630;2023-03-16T10:46:01;10.18;;;2.72;;
13366;SDS011;6752;52.612;13.630;2023-03-16T10:51:07;8.13;;;2.33;;
13366;SDS011;6752;52.612;13.630;2023-03-16T10:56:21;10.18;;;2.72;;
13366;SDS011;6752;52.612;13.630;2023-03-16T11:01:25;7.97;;;2.67;;
13366;SDS011;6752;52.612;13.630;2023-03-16T11:06:27;8.40;;;2.30;;
13366;SDS011;6752;52.612;13.630;2023-03-16T11:11:29;11.43;;;2.33;;
13366;SDS011;6752;52.612;13.630;2023-03-16T11:16:55;7.53;;;2.10;;
13366;SDS011;6752;52.612;13.630;2023-03-16T11:32:51;7.87;;;2.20;;
13366;SDS011;6752;52.612;13.630;2023-03-16T11:43:22;9.75;;;2.12;;
13366;SDS011;6752;52.612;13.630;2023-03-16T11:48:56;5.22;;;1.90;;
13366;SDS011;6752;52.612;13.630;2023-03-16T12:09:26;7.28;;;2.37;;
13366;SDS011;6752;52.612;13.630;2023-03-16T12:14:23;9.15;;;2.60;;
13366;SDS011;6752;52.612;13.630;2023-03-16T12:20:27;9.38;;;2.00;;
13366;SDS011;6752;52.612;13.630;2023-03-16T12:24:43;8.00;;;1.90;;
13366;SDS011;6752;52.612;13.630;2023-03-16T12:40:35;10.32;;;2.65;;
13366;SDS011;6752;52.612;13.630;2023-03-16T12:45:37;6.55;;;2.22;;
13366;SDS011;6752;52.612;13.630;2023-03-16T12:50:49;5.90;;;2.30;;
13366;SDS011;6752;52.612;13.630;2023-03-16T12:55:54;5.05;;;2.00;;
13366;SDS011;6752;52.612;13.630;2023-03-16T13:00:57;7.35;;;1.85;;
13366;SDS011;6752;52.612;13.630;2023-03-16T13:05:59;5.47;;;2.28;;
13366;SDS011;6752;52.612;13.630;2023-03-16T13:11:06;11.95;;;2.33;;
13366;SDS011;6752;52.612;13.630;2023-03-16T13:16:07;10.32;;;1.73;;
13366;SDS011;6752;52.612;13.630;2023-03-16T13:21:18;6.22;;;1.83;;
13366;SDS011;6752;52.612;13.630;2023-03-16T13:26:15;5.30;;;1.40;;
13366;SDS011;6752;52.612;13.630;2023-03-16T13:41:24;5.47;;;1.62;;
13366;SDS011;6752;52.612;13.630;2023-03-16T13:46:27;5.28;;;1.50;;
13366;SDS011;6752;52.612;13.630;2023-03-16T13:51:31;5.80;;;1.50;;
13366;SDS011;6752;52.612;13.630;2023-03-16T13:56:32;4.80;;;1.73;;
13366;SDS011;6752;52.612;13.630;2023-03-16T14:01:38;5.12;;;1.77;;
13366;SDS011;6752;52.612;13.630;2023-03-16T14:06:37;5.47;;;1.90;;
13366;SDS011;6752;52.612;13.630;2023-03-16T14:11:39;8.38;;;1.87;;
13366;SDS011;6752;52.612;13.630;2023-03-16T14:16:42;6.12;;;1.77;;
13366;SDS011;6752;52.612;13.630;2023-03-16T14:21:46;6.43;;;2.00;;
13366;SDS011;6752;52.612;13.630;2023-03-16T14:26:48;7.53;;;2.20;;
13366;SDS011;6752;52.612;13.630;2023-03-16T14:31:51;6.95;;;2.15;;
13366;SDS011;6752;52.612;13.630;2023-03-16T14:37:07;8.85;;;2.35;;
13366;SDS011;6752;52.612;13.630;2023-03-16T14:42:22;6.60;;;2.33;;
13366;SDS011;6752;52.612;13.630;2023-03-16T14:47:28;4.65;;;1.98;;
13366;SDS011;6752;52.612;13.630;2023-03-16T14:52:39;4.60;;;1.80;;
13366;SDS011;6752;52.612;13.630;2023-03-16T14:57:41;4.82;;;1.58;;
13366;SDS011;6752;52.612;13.630;2023-03-16T15:02:44;4.80;;;1.90;;
13366;SDS011;6752;52.612;13.630;2023-03-16T15:07:46;5.82;;;2.12;;
13366;SDS011;6752;52.612;13.630;2023-03-16T15:12:48;6.28;;;2.25;;
13366;SDS011;6752;52.612;13.630;2023-03-16T15:17:51;4.20;;;1.90;;
13366;SDS011;6752;52.612;13.630;2023-03-16T15:22:53;7.57;;;2.15;;
13366;SDS011;6752;52.612;13.630;2023-03-16T15:27:56;3.85;;;1.90;;
13366;SDS011;6752;52.612;13.630;2023-03-16T15:32:58;5.72;;;2.22;;
13366;SDS011;6752;52.612;13.630;2023-03-16T15:38:01;6.25;;;2.00;;
13366;SDS011;6752;52.612;13.630;2023-03-16T15:43:04;4.80;;;2.05;;
13366;SDS011;6752;52.612;13.630;2023-03-16T15:48:23;5.50;;;2.53;;
13366;SDS011;6752;52.612;13.630;2023-03-16T15:53:46;5.50;;;2.08;;
13366;SDS011;6752;52.612;13.630;2023-03-16T15:58:49;4.78;;;2.50;;
13366;SDS011;6752;52.612;13.630;2023-03-16T16:03:52;8.43;;;2.72;;
13366;SDS011;6752;52.612;13.630;2023-03-16T16:08:54;5.97;;;2.53;;
13366;SDS011;6752;52.612;13.630;2023-03-16T16:13:57;5.68;;;2.80;;
13366;SDS011;6752;52.612;13.630;2023-03-16T16:18:59;7.28;;;2.97;;
13366;SDS011;6752;52.612;13.630;2023-03-16T16:24:01;7.35;;;3.10;;
13366;SDS011;6752;52.612;13.630;2023-03-16T16:34:16;5.47;;;2.85;;
13366;SDS011;6752;52.612;13.630;2023-03-16T16:39:20;6.75;;;2.92;;
13366;SDS011;6752;52.612;13.630;2023-03-16T16:44:23;7.85;;;3.28;;
13366;SDS011;6752;52.612;13.630;2023-03-16T16:49:26;8.57;;;3.33;;
13366;SDS011;6752;52.612;13.630;2023-03-16T16:54:28;6.53;;;3.47;;
13366;SDS011;6752;52.612;13.630;2023-03-16T16:59:32;9.02;;;4.57;;
13366;SDS011;6752;52.612;13.630;2023-03-16T17:04:33;6.75;;;4.07;;
13366;SDS011;6752;52.612;13.630;2023-03-16T17:09:35;7.33;;;4.70;;
13366;SDS011;6752;52.612;13.630;2023-03-16T17:14:38;7.65;;;3.95;;
13366;SDS011;6752;52.612;13.630;2023-03-16T17:19:40;6.10;;;3.20;;
13366;SDS011;6752;52.612;13.630;2023-03-16T17:24:43;6.47;;;3.50;;
13366;SDS011;6752;52.612;13.630;2023-03-16T17:29:45;10.13;;;5.43;;
13366;SDS011;6752;52.612;13.630;2023-03-16T17:34:48;7.75;;;3.78;;
13366;SDS011;6752;52.612;13.630;2023-03-16T17:39:50;18.33;;;10.27;;
13366;SDS011;6752;52.612;13.630;2023-03-16T17:44:52;10.95;;;4.53;;
13366;SDS011;6752;52.612;13.630;2023-03-16T17:49:55;9.38;;;5.85;;
13366;SDS011;6752;52.612;13.630;2023-03-16T17:54:57;14.30;;;6.30;;
13366;SDS011;6752;52.612;13.630;2023-03-16T18:00:00;15.13;;;7.07;;
13366;SDS011;6752;52.612;13.630;2023-03-16T18:05:02;11.82;;;6.85;;
13366;SDS011;6752;52.612;13.630;2023-03-16T18:10:05;9.88;;;5.78;;
13366;SDS011;6752;52.612;13.630;2023-03-16T18:15:12;12.73;;;7.28;;
13366;SDS011;6752;52.612;13.630;2023-03-16T18:20:26;11.65;;;7.72;;
13366;SDS011;6752;52.612;13.630;2023-03-16T18:30:33;12.73;;;8.30;;
13366;SDS011;6752;52.612;13.630;2023-03-16T18:35:35;8.80;;;6.55;;
13366;SDS011;6752;52.612;13.630;2023-03-16T18:40:37;11.12;;;6.40;;
13366;SDS011;6752;52.612;13.630;2023-03-16T18:45:40;10.50;;;6.90;;
13366;SDS011;6752;52.612;13.630;2023-03-16T18:50:42;10.55;;;6.35;;
13366;SDS011;6752;52.612;13.630;2023-03-16T18:55:45;10.88;;;6.40;;
13366;SDS011;6752;52.612;13.630;2023-03-16T19:10:52;9.35;;;6.65;;
13366;SDS011;6752;52.612;13.630;2023-03-16T19:15:56;12.65;;;6.93;;
13366;SDS011;6752;52.612;13.630;2023-03-16T19:20:58;15.10;;;7.05;;
13366;SDS011;6752;52.612;13.630;2023-03-16T19:26:01;8.38;;;6.03;;
13366;SDS011;6752;52.612;13.630;2023-03-16T19:31:27;12.82;;;6.70;;
13366;SDS011;6752;52.612;13.630;2023-03-16T19:36:16;11.88;;;6.50;;
13366;SDS011;6752;52.612;13.630;2023-03-16T19:41:20;11.00;;;6.95;;
13366;SDS011;6752;52.612;13.630;2023-03-16T19:46:21;12.88;;;6.78;;
13366;SDS011;6752;52.612;13.630;2023-03-16T19:51:23;10.07;;;6.10;;
13366;SDS011;6752;52.612;13.630;2023-03-16T20:01:29;8.95;;;6.40;;
13366;SDS011;6752;52.612;13.630;2023-03-16T20:06:30;12.45;;;6.25;;
13366;SDS011;6752;52.612;13.630;2023-03-16T20:11:32;13.07;;;6.53;;
13366;SDS011;6752;52.612;13.630;2023-03-16T20:16:35;11.73;;;6.07;;
13366;SDS011;6752;52.612;13.630;2023-03-16T20:26:39;13.82;;;6.78;;
13366;SDS011;6752;52.612;13.630;2023-03-16T20:31:41;11.23;;;6.07;;
13366;SDS011;6752;52.612;13.630;2023-03-16T20:36:44;13.90;;;5.37;;
13366;SDS011;6752;52.612;13.630;2023-03-16T20:41:46;10.95;;;6.80;;
13366;SDS011;6752;52.612;13.630;2023-03-16T20:46:49;9.73;;;5.68;;
13366;SDS011;6752;52.612;13.630;2023-03-16T20:51:51;8.82;;;5.40;;
13366;SDS011;6752;52.612;13.630;2023-03-16T20:56:53;8.45;;;5.57;;
13366;SDS011;6752;52.612;13.630;2023-03-16T21:01:56;12.98;;;6.40;;
13366;SDS011;6752;52.612;13.630;2023-03-16T21:06:58;8.90;;;5.28;;
13366;SDS011;6752;52.612;13.630;2023-03-16T21:12:00;9.55;;;6.15;;
13366;SDS011;6752;52.612;13.630;2023-03-16T21:17:04;7.90;;;5.82;;
13366;SDS011;6752;52.612;13.630;2023-03-16T21:22:10;8.50;;;5.43;;
13366;SDS011;6752;52.612;13.630;2023-03-16T21:27:08;12.37;;;7.18;;
13366;SDS011;6752;52.612;13.630;2023-03-16T21:32:15;13.93;;;7.43;;
13366;SDS011;6752;52.612;13.630;2023-03-16T21:37:16;11.13;;;5.90;;
13366;SDS011;6752;52.612;13.630;2023-03-16T21:42:17;11.63;;;6.18;;
13366;SDS011;6752;52.612;13.630;2023-03-16T21:47:21;10.00;;;5.47;;
13366;SDS011;6752;52.612;13.630;2023-03-16T21:52:23;9.65;;;5.72;;
13366;SDS011;6752;52.612;13.630;2023-03-16T21:57:25;15.15;;;6.57;;
13366;SDS011;6752;52.612;13.630;2023-03-16T22:02:27;9.95;;;6.32;;
13366;SDS011;6752;52.612;13.630;2023-03-16T22:07:29;9.07;;;6.12;;
13366;SDS011;6752;52.612;13.630;2023-03-16T22:12:32;10.43;;;6.60;;
13366;SDS011;6752;52.612;13.630;2023-03-16T22:17:34;13.35;;;6.53;;
13366;SDS011;6752;52.612;13.630;2023-03-16T22:22:36;17.08;;;7.12;;
13366;SDS011;6752;52.612;13.630;2023-03-16T22:27:39;9.48;;;6.72;;
13366;SDS011;6752;52.612;13.630;2023-03-16T22:32:41;12.70;;;7.25;;
13366;SDS011;6752;52.612;13.630;2023-03-16T22:42:45;15.18;;;7.05;;
13366;SDS011;6752;52.612;13.630;2023-03-16T22:47:48;11.30;;;6.47;;
13366;SDS011;6752;52.612;13.630;2023-03-16T22:52:51;17.70;;;9.38;;
13366;SDS011;6752;52.612;13.630;2023-03-16T23:02:54;10.70;;;7.43;;
13366;SDS011;6752;52.612;13.630;2023-03-16T23:07:58;16.17;;;7.45;;
13366;SDS011;6752;52.612;13.630;2023-03-16T23:12:59;11.43;;;7.37;;
13366;SDS011;6752;52.612;13.630;2023-03-16T23:18:02;12.43;;;8.70;;
13366;SDS011;6752;52.612;13.630;2023-03-16T23:23:04;17.67;;;8.10;;
13366;SDS011;6752;52.612;13.630;2023-03-16T23:28:06;13.43;;;7.60;;
13366;SDS011;6752;52.612;13.630;2023-03-16T23:33:10;13.75;;;7.53;;
13366;SDS011;6752;52.612;13.630;2023-03-16T23:38:11;13.02;;;8.00;;
13366;SDS011;6752;52.612;13.630;2023-03-16T23:43:13;13.55;;;7.80;;
13366;SDS011;6752;52.612;13.630;2023-03-16T23:48:16;14.50;;;7.80;;
13366;SDS011;6752;52.612;13.630;2023-03-16T23:53:18;15.25;;;7.93;;
13366;SDS011;6752;52.612;13.630;2023-03-16T23:58:21;19.15;;;9.15;;
